Latest Weather Observations for Grafton Airport

IDN60801

Issued at 2:52 pm EDT Saturday 29 February 2020 (issued every 10 minutes, with the page automatically refreshed every 10 minutes)

About weather observations | Map of weather stations | Latest weather observations for NSW | Other Formats
Station Details ID: 058161 Name: GRAFTON AIRPORT AWS Lat: -29.76 Lon: 153.03 Height: 25.09 m
Data from the previous 72 hours. | See also: Recent months at Grafton Airport
Date/Time
EDT
Temp
°C
App
Temp
°C
Dew
Point
°C
Rel
Hum
%
Delta-T
°C
Wind Press
QNH
hPa
Press
MSL
hPa
Rain since
9am
mm
Dir  Spd
km/h
Gust
km/h
Spd
kts
Gust
kts
29/02:30pm 29.0 29.5 17.5 49 7.3 SE 11 20 6 11 1014.0 1013.9 0.2
29/02:00pm 28.5 28.8 17.1 50 7.2 SSE 11 20 6 11 1014.3 1014.2 0.2
29/01:30pm 27.4 27.4 17.3 54 6.3 S 13 24 7 13 1014.8 1014.7 0.2
29/01:00pm 27.1 27.1 17.3 55 6.1 SSE 13 19 7 10 1015.1 1015.0 0.2
29/12:30pm 26.8 26.3 17.0 55 6.1 SSE 15 20 8 11 1015.3 1015.2 0.2
29/12:00pm 26.3 25.7 17.6 58 5.5 S 17 22 9 12 1015.7 1015.6 0.2
29/11:30am 26.1 26.3 17.7 60 5.3 SSE 13 17 7 9 1015.9 1015.8 0.2
29/11:00am 26.0 25.3 17.4 59 5.4 S 17 24 9 13 1016.2 1016.1 0.2
29/10:30am 26.0 26.1 18.4 63 4.8 SSW 15 20 8 11 1016.1 1016.0 0.2
29/10:00am 25.6 26.7 18.8 66 4.3 SSW 11 19 6 10 1016.0 1015.9 0.0
29/09:30am 24.5 24.7 17.7 66 4.3 SSW 13 20 7 11 1015.9 1015.8 0.0
29/09:00am 23.7 23.7 17.2 67 4.0 SSW 13 19 7 10 1015.8 1015.7 3.2
29/08:30am 22.9 23.1 16.7 68 3.8 SW 11 17 6 9 1015.6 1015.5 3.2
29/08:00am 22.1 23.0 16.6 71 3.3 SW 7 11 4 6 1015.5 1015.4 3.2
29/07:30am 21.2 21.9 16.0 72 3.1 SW 7 9 4 5 1015.0 1014.9 3.2
29/07:00am 20.7 20.8 15.5 72 3.1 SSW 9 11 5 6 1014.7 1014.6 3.2
29/06:30am 20.9 21.3 15.4 71 3.3 SW 7 9 4 5 1014.4 1014.3 3.2
29/06:00am 21.2 21.9 16.0 72 3.1 SSW 7 11 4 6 1014.2 1014.1 3.2
29/05:30am 21.2 21.9 16.2 73 3.0 SW 7 11 4 6 1013.9 1013.8 3.2
29/05:00am 21.1 22.4 16.1 73 3.0 SW 4 9 2 5 1013.8 1013.7 3.2
29/04:30am 21.4 22.0 15.9 71 3.3 SSW 7 11 4 6 1013.6 1013.5 3.2
29/04:00am 21.7 22.3 15.8 69 3.5 SW 7 11 4 6 1013.6 1013.5 3.2
29/03:30am 22.0 22.1 16.5 71 3.3 SSW 11 15 6 8 1013.4 1013.3 3.2
29/03:00am 21.6 21.2 16.3 72 3.2 S 13 19 7 10 1013.3 1013.2 3.2
29/02:30am 21.7 21.8 16.4 72 3.2 SSW 11 17 6 9 1013.6 1013.5 3.2
29/02:00am 21.5 21.5 16.2 72 3.2 SSW 11 15 6 8 1013.8 1013.7 3.2
29/01:30am 22.0 22.2 16.7 72 3.2 SSW 11 19 6 10 1014.0 1013.9 3.2
29/01:00am 22.1 22.4 17.0 73 3.1 SSW 11 19 6 10 1014.0 1013.9 3.2
29/12:30am 22.5 22.4 17.8 75 2.9 SSW 15 19 8 10 1013.9 1013.8 3.2
29/12:00am 22.6 23.1 18.4 77 2.6 S 13 19 7 10 1014.0 1013.9 3.2
 
Date/Time
EDT
Temp
°C
App
Temp
°C
Dew
Point
°C
Rel
Hum
%
Delta-T
°C
Wind Press
QNH
hPa
Press
MSL
hPa
Rain since
9am
mm
Dir  Spd
km/h
Gust
km/h
Spd
kts
Gust
kts
28/11:30pm 22.7 23.3 18.7 78 2.5 S 13 19 7 10 1013.7 1013.6 3.2
28/11:00pm 22.6 23.7 18.8 79 2.4 S 11 15 6 8 1013.4 1013.3 3.2
28/10:30pm 22.9 23.5 19.5 81 2.2 S 15 26 8 14 1013.2 1013.1 3.2
28/10:00pm 23.0 23.3 20.3 85 1.7 S 19 28 10 15 1013.1 1013.0 3.2
28/09:30pm 23.3 24.5 21.4 89 1.3 S 17 28 9 15 1013.1 1013.0 3.2
28/09:00pm 23.3 25.3 21.6 90 1.1 S 13 19 7 10 1012.4 1012.3 3.2
28/08:30pm 23.1 25.7 21.2 89 1.2 SE 9 17 5 9 1012.0 1011.9 3.2
28/08:00pm 23.0 25.2 20.5 86 1.6 E 9 13 5 7 1011.7 1011.6 3.2
28/07:37pm 23.4 24.8 20.3 83 2.0 SSE 13 20 7 11 1011.2 1011.1 3.2
28/07:30pm 23.3 24.5 19.9 81 2.2 SSE 13 20 7 11 1011.0 1010.9 3.2
28/07:14pm 23.7 23.3 19.0 75 3.0 SSE 19 35 10 19 1010.8 1010.7 0.8
28/07:00pm 25.6 26.9 20.2 72 3.5 SSE 13 17 7 9 1010.2 1010.0 0.0
28/06:30pm 26.2 27.7 20.5 71 3.7 ESE 13 22 7 12 1009.8 1009.6 0.0
28/06:00pm 27.0 28.2 20.6 68 4.2 SE 15 24 8 13 1009.3 1009.1 0.0
28/05:30pm 27.2 27.8 20.3 66 4.5 ESE 17 28 9 15 1008.8 1008.6 0.0
28/05:00pm 28.4 28.0 19.3 57 5.9 ESE 20 35 11 19 1008.3 1008.1 0.0
28/04:30pm 29.2 29.7 20.1 58 6.0 SE 17 24 9 13 1008.1 1007.9 0.0
28/04:00pm 29.6 30.0 19.9 56 6.4 SE 17 30 9 16 1007.8 1007.6 0.0
28/03:30pm 30.0 30.6 20.3 56 6.4 ESE 17 26 9 14 1007.6 1007.4 0.0
28/03:00pm 29.4 29.5 20.3 58 6.0 SE 20 30 11 16 1007.7 1007.5 0.0
28/02:30pm 29.7 30.8 20.5 57 6.1 ESE 15 24 8 13 1007.8 1007.6 0.0
28/02:00pm 30.1 31.8 21.7 60 5.7 E 15 24 8 13 1007.9 1007.7 0.0
28/01:30pm 29.4 30.1 19.7 56 6.3 E 15 20 8 11 1008.2 1008.0 0.0
28/01:00pm 30.0 32.4 20.0 55 6.6 NNE 7 11 4 6 1008.4 1008.2 0.0
28/12:30pm 29.8 32.2 20.1 56 6.4 NNW 7 11 4 6 1008.6 1008.4 0.0
28/12:00pm 28.8 31.0 20.5 61 5.5 S 9 13 5 7 1008.6 1008.4 0.0
28/11:30am 28.2 30.9 20.7 63 5.0 S 7 20 4 11 1008.9 1008.7 0.0
28/11:00am 27.0 30.0 20.8 69 4.1 SSW 6 11 3 6 1009.0 1008.8 0.0
28/10:30am 27.1 31.8 24.0 83 2.1 SE 6 9 3 5 1009.1 1008.9 0.0
28/10:00am 25.8 31.1 24.9 95 0.6 SW 6 7 3 4 1009.2 1009.0 0.0
28/09:30am 24.3 29.9 24.3 100 0.0 SE 2 7 1 4 1009.1 1008.9 0.0
28/09:02am 22.7 27.0 22.7 100 0.0 SSE 4 7 2 4 1009.0 1008.8 0.0
28/09:00am 22.4 27.0 22.4 100 0.0 SSE 2 7 1 4 1009.0 1008.8 0.0
28/08:54am 22.3 27.2 22.3 100 0.0 CALM 0 4 0 2 1009.0 1008.8 0.0
28/08:30am 21.1 25.0 21.1 100 0.0 S 2 6 1 3 1008.8 1008.6 0.0
28/08:00am 20.6 24.6 20.6 100 0.0 CALM 0 0 0 0 1008.8 1008.6 0.0
28/07:30am 20.4 24.3 20.4 100 0.0 CALM 0 0 0 0 1008.5 1008.3 0.0
28/07:13am 20.2 24.0 20.2 100 0.0 CALM 0 0 0 0 1008.2 1008.0 0.0
28/07:00am 20.0 23.7 20.0 100 0.0 CALM 0 0 0 0 1008.2 1008.0 0.0
28/06:30am 20.2 22.9 20.2 100 0.0 SW 6 9 3 5 1007.8 1007.6 0.0
28/06:00am 20.3 24.2 20.3 100 0.0 CALM 0 0 0 0 1007.6 1007.4 0.0
28/05:30am 20.6 24.6 20.6 100 0.0 CALM 0 0 0 0 1007.6 1007.4 0.0
28/05:00am 20.4 24.2 20.2 99 0.1 CALM 0 0 0 0 1007.3 1007.1 0.0
28/04:48am 20.6 24.5 20.4 99 0.1 CALM 0 0 0 0 1007.3 1007.1 0.0
28/04:35am 20.5 24.4 20.3 99 0.1 CALM 0 0 0 0 1007.3 1007.1 0.0
28/04:30am 20.7 24.7 20.5 99 0.1 CALM 0 0 0 0 1007.2 1007.0 0.0
28/04:00am 20.9 24.1 20.6 98 0.2 SSE 4 9 2 5 1007.2 1007.0 0.0
28/03:30am 21.1 25.1 20.6 97 0.3 CALM 0 0 0 0 1007.5 1007.3 0.0
28/03:00am 21.2 23.9 20.7 97 0.3 S 7 7 4 4 1007.7 1007.5 0.0
28/02:30am 21.3 25.3 20.6 96 0.5 CALM 0 0 0 0 1007.9 1007.7 0.0
28/02:14am 21.3 25.3 20.5 95 0.5 CALM 0 0 0 0 1008.1 1007.9 0.0
28/02:00am 21.4 25.4 20.6 95 0.5 CALM 0 0 0 0 1008.3 1008.1 0.0
28/01:55am 21.3 25.3 20.5 95 0.5 CALM 0 0 0 0 1008.3 1008.1 0.0
28/01:30am 21.6 25.6 20.6 94 0.6 CALM 0 0 0 0 1008.1 1007.9 0.0
28/01:00am 21.7 25.7 20.5 93 0.8 CALM 0 0 0 0 1008.3 1008.1 0.0
28/12:30am 21.7 25.6 20.3 92 0.9 CALM 0 0 0 0 1008.6 1008.4 0.0
28/12:00am 21.7 25.5 20.2 91 1.0 CALM 0 6 0 3 1008.9 1008.7 0.0
 
Date/Time
EDT
Temp
°C
App
Temp
°C
Dew
Point
°C
Rel
Hum
%
Delta-T
°C
Wind Press
QNH
hPa
Press
MSL
hPa
Rain since
9am
mm
Dir  Spd
km/h
Gust
km/h
Spd
kts
Gust
kts
27/11:30pm 22.0 25.9 20.3 90 1.1 CALM 0 0 0 0 1009.0 1008.8 0.0
27/11:00pm 22.3 25.5 20.4 89 1.2 SSW 4 7 2 4 1009.2 1009.0 0.0
27/10:30pm 22.5 25.1 20.4 88 1.4 S 7 9 4 5 1009.1 1008.9 0.0
27/10:00pm 22.7 25.4 20.2 86 1.6 SSW 6 7 3 4 1009.2 1009.0 0.0
27/09:30pm 22.8 25.2 20.1 85 1.7 SW 7 9 4 5 1008.9 1008.7 0.0
27/09:00pm 23.1 25.2 20.1 83 1.9 SSW 9 11 5 6 1008.7 1008.5 0.0
27/08:30pm 23.4 25.8 20.0 81 2.2 SW 7 11 4 6 1008.4 1008.2 0.0
27/08:00pm 23.7 26.0 19.8 79 2.5 SW 7 9 4 5 1008.4 1008.2 0.0
27/07:30pm 24.2 26.4 19.7 76 2.9 SW 7 11 4 6 1008.1 1007.9 0.0
27/07:00pm 24.7 26.9 19.5 73 3.4 SSE 7 11 4 6 1007.5 1007.3 0.0
27/06:30pm 25.3 27.2 19.7 71 3.6 SE 9 13 5 7 1007.7 1007.5 0.0
27/06:00pm 25.7 25.8 19.1 67 4.2 SSE 17 26 9 14 1008.0 1007.8 0.0
27/05:30pm 26.5 26.5 18.9 63 4.9 SE 17 30 9 16 1007.5 1007.3 0.0
27/05:00pm 27.9 28.3 19.9 61 5.2 SSE 17 28 9 15 1007.3 1007.1 0.0
27/04:30pm 27.8 27.7 19.6 61 5.3 ESE 19 28 10 15 1006.8 1006.6 0.0
27/04:00pm 28.4 28.0 18.8 56 6.2 ESE 19 26 10 14 1007.0 1006.8 0.0
27/03:30pm 28.5 28.9 18.9 56 6.2 ESE 15 28 8 15 1007.1 1006.9 0.0
27/03:00pm 28.4 28.6 18.5 55 6.4 ESE 15 30 8 16 1007.1 1006.9 0.0
27/02:30pm 28.9 29.3 18.9 54 6.5 SE 15 22 8 12 1007.3 1007.1 0.0
27/02:00pm 29.3 30.4 19.6 56 6.3 SSE 13 20 7 11 1007.4 1007.2 0.0
27/01:30pm 28.1 28.5 19.1 58 5.8 S 15 20 8 11 1007.9 1007.7 0.0
27/01:00pm 28.7 29.8 19.6 58 5.9 S 13 20 7 11 1008.2 1008.0 0.0
27/12:30pm 28.4 29.7 19.3 57 5.9 SSE 11 19 6 10 1008.6 1008.4 0.0
27/12:00pm 28.1 28.9 19.1 58 5.8 SE 13 20 7 11 1008.9 1008.7 0.0
27/11:30am 27.4 27.0 18.9 59 5.5 SE 19 26 10 14 1009.3 1009.1 0.0
27/11:00am 26.7 27.2 19.3 64 4.8 SSW 15 22 8 12 1009.5 1009.3 0.0
27/10:30am 26.2 27.1 19.3 65 4.4 S 13 24 7 13 1009.6 1009.4 0.0
27/10:00am 26.1 27.3 20.0 69 4.0 SSE 13 22 7 12 1009.4 1009.2 0.0
27/09:30am 25.2 26.5 20.9 77 2.8 SSE 15 19 8 10 1009.2 1009.0 0.0
27/09:00am 24.4 27.4 22.7 90 1.1 SSE 11 17 6 9 1009.2 1009.0 7.2
27/08:30am 22.4 27.1 21.9 97 0.3 CALM 0 0 0 0 1009.1 1008.9 7.2
27/08:00am 21.2 24.3 21.0 99 0.1 WSW 6 9 3 5 1008.9 1008.7 7.2
27/07:30am 20.0 22.9 19.8 99 0.1 SW 4 7 2 4 1008.5 1008.3 7.2
27/07:00am 19.6 21.8 19.3 98 0.2 WSW 6 7 3 4 1008.3 1008.1 7.2
27/06:30am 19.7 21.0 19.4 98 0.2 S 11 15 6 8 1007.9 1007.7 7.2
27/06:00am 19.7 20.7 19.4 98 0.2 S 13 19 7 10 1007.4 1007.2 7.2
27/05:30am 19.7 22.7 19.2 97 0.3 S 2 7 1 4 1006.6 1006.4 7.2
27/05:00am 20.1 22.3 19.6 97 0.3 SW 7 9 4 5 1006.8 1006.6 7.2
27/04:30am 20.3 23.8 19.6 96 0.4 CALM 0 0 0 0 1006.8 1006.6 7.2
27/04:00am 20.3 23.8 19.5 95 0.5 CALM 0 0 0 0 1006.7 1006.5 7.2
27/03:30am 20.4 22.7 19.4 94 0.6 N 6 6 3 3 1007.3 1007.1 7.2
27/03:00am 20.5 21.5 19.5 94 0.6 S 13 19 7 10 1007.3 1007.1 7.2
27/02:30am 20.6 23.2 19.3 92 0.8 ESE 4 6 2 3 1007.1 1006.9 7.2
27/02:00am 20.8 24.2 19.3 91 1.0 CALM 0 6 0 3 1006.7 1006.5 7.2
27/01:30am 21.0 23.3 19.5 91 1.0 WNW 6 13 3 7 1007.2 1007.0 7.2
27/01:00am 21.6 24.9 19.9 90 1.1 SE 2 15 1 8 1007.7 1007.5 7.2
27/12:35am 21.9 24.3 20.0 89 1.2 NNW 7 11 4 6 1007.9 1007.7 6.8
27/12:30am 21.9 24.3 20.0 89 1.2 N 7 9 4 5 1008.2 1008.0 6.8
27/12:08am 22.7 25.2 21.0 90 1.1 WSW 9 17 5 9 1009.6 1009.4 5.4
27/12:00am 22.8 25.3 21.1 90 1.1 SW 9 15 5 8 1009.7 1009.5 4.6
 
Date/Time
EDT
Temp
°C
App
Temp
°C
Dew
Point
°C
Rel
Hum
%
Delta-T
°C
Wind Press
QNH
hPa
Press
MSL
hPa
Rain since
9am
mm
Dir  Spd
km/h
Gust
km/h
Spd
kts
Gust
kts
26/11:30pm 22.0 24.9 19.9 88 1.3 SW 4 7 2 4 1009.6 1009.4 4.6
26/11:00pm 22.5 25.9 20.2 87 1.5 NE 2 7 1 4 1009.2 1009.0 4.6
26/10:30pm 22.4 24.7 19.9 86 1.6 SW 7 11 4 6 1009.2 1009.0 4.6
26/10:00pm 22.4 25.3 19.9 86 1.6 NNW 4 6 2 3 1009.3 1009.1 4.6
26/09:30pm 22.9 24.7 20.4 86 1.6 NNE 11 15 6 8 1009.1 1008.9 4.6
26/09:00pm 23.1 27.0 20.4 85 1.8 CALM 0 0 0 0 1008.9 1008.7 4.6
26/08:30pm 23.3 26.7 20.2 83 2.0 E 2 7 1 4 1008.5 1008.3 4.6
26/08:00pm 23.6 26.2 20.5 83 2.0 ENE 7 11 4 6 1007.7 1007.5 4.6
26/07:30pm 23.9 26.6 20.6 82 2.2 NNE 7 13 4 7 1007.3 1007.1 4.6
26/07:00pm 23.6 25.4 19.5 78 2.6 E 9 17 5 9 1006.9 1006.7 4.6
26/06:30pm 24.1 25.6 20.6 81 2.3 SSE 13 19 7 10 1006.5 1006.3 4.6
26/06:00pm 24.8 25.4 21.1 80 2.4 SE 19 32 10 17 1007.0 1006.8 4.6
26/05:52pm 26.2 29.2 22.7 81 2.4 SE 11 19 6 10 1007.2 1007.0 4.6
26/05:30pm 25.5 26.5 20.3 73 3.4 NE 15 19 8 10 1006.0 1005.8 4.4
26/05:22pm 26.4 26.8 19.8 67 4.3 NE 17 24 9 13 1006.2 1006.0 1.4
26/05:00pm 29.1 29.6 20.8 61 5.5 NE 19 24 10 13 1005.4 1005.2 0.0
26/04:30pm 30.1 31.4 20.9 57 6.1 NE 15 24 8 13 1005.4 1005.2 0.0
26/04:00pm 31.2 31.9 20.5 53 7.1 N 17 26 9 14 1005.7 1005.5 0.0
26/03:30pm 31.2 31.2 20.2 52 7.3 NNE 20 30 11 16 1006.1 1005.9 0.0
26/03:00pm 30.2 30.1 19.6 53 7.0 NNE 19 28 10 15 1006.8 1006.6 0.0

Other formats

Comma delimited format used in spreadsheet applications
http://www.bom.gov.au/fwo/IDN60801/IDN60801.95570.axf

JavaScript Object Notation format (JSON) in row-major order
http://www.bom.gov.au/fwo/IDN60801/IDN60801.95570.json

Data quality

Most of these data are generated automatically and are frequently updated. Quality checks on data are not normally performed. It is possible for incorrect values to appear. Refer to information at About Latest Weather Observations and please check the disclaimer before using these data.